Camp Dennison, Ohio
Current Conditions -  °F | °C
As of 8:55 PM on Thursday 18 Dec 2014 (Local Time) from KLUK Reporting Station
Overcast Overcast  
Wind Chill: 29°   Ceiling: 2600
Heat Index: 29°   Visibility: 10mi
Dew Point: 22°   Wind: 0mph
Humidity: 75%   Direction: NA
Pressure: 30.26"   Gusts: NA
Location:  39.2°N, 84.29°W
Report Text: KLUK 190155Z 00000KT 10SM OVC026 M02/M06 A3026 RMK AO2 T10171056
Loading
Personal Weather Stations






























Interactive Weather Map New forecast layout! Learn more

10-Day Weather Forecast

Advertisements
Track Severe Weather on mobile